sensor_id;sensor_type;location;lat;lon;timestamp;P1;durP1;ratioP1;P2;durP2;ratioP2
39190;SDS011;24916;51.676;6.614;2022-08-21T00:00:14;9.02;;;2.97;;
39190;SDS011;24916;51.676;6.614;2022-08-21T00:02:47;6.05;;;3.60;;
39190;SDS011;24916;51.676;6.614;2022-08-21T00:05:13;6.78;;;3.03;;
39190;SDS011;24916;51.676;6.614;2022-08-21T00:07:39;6.05;;;3.22;;
39190;SDS011;24916;51.676;6.614;2022-08-21T00:10:04;5.18;;;3.22;;
39190;SDS011;24916;51.676;6.614;2022-08-21T00:12:30;11.05;;;3.38;;
39190;SDS011;24916;51.676;6.614;2022-08-21T00:14:56;7.40;;;3.22;;
39190;SDS011;24916;51.676;6.614;2022-08-21T00:17:21;11.20;;;3.45;;
39190;SDS011;24916;51.676;6.614;2022-08-21T00:19:47;8.88;;;3.17;;
39190;SDS011;24916;51.676;6.614;2022-08-21T00:22:12;9.23;;;3.80;;
39190;SDS011;24916;51.676;6.614;2022-08-21T00:24:38;7.72;;;3.83;;
39190;SDS011;24916;51.676;6.614;2022-08-21T00:27:03;8.52;;;3.25;;
39190;SDS011;24916;51.676;6.614;2022-08-21T00:29:29;13.63;;;3.55;;
39190;SDS011;24916;51.676;6.614;2022-08-21T00:31:54;5.75;;;3.45;;
39190;SDS011;24916;51.676;6.614;2022-08-21T00:34:19;7.13;;;3.03;;
39190;SDS011;24916;51.676;6.614;2022-08-21T00:36:45;9.80;;;3.20;;
39190;SDS011;24916;51.676;6.614;2022-08-21T00:39:10;7.97;;;3.60;;
39190;SDS011;24916;51.676;6.614;2022-08-21T00:41:36;6.68;;;3.03;;
39190;SDS011;24916;51.676;6.614;2022-08-21T00:44:02;8.10;;;3.00;;
39190;SDS011;24916;51.676;6.614;2022-08-21T00:46:28;7.65;;;3.40;;
39190;SDS011;24916;51.676;6.614;2022-08-21T00:48:54;9.38;;;4.00;;
39190;SDS011;24916;51.676;6.614;2022-08-21T00:51:21;7.72;;;3.28;;
39190;SDS011;24916;51.676;6.614;2022-08-21T00:53:51;10.00;;;4.25;;
39190;SDS011;24916;51.676;6.614;2022-08-21T00:56:18;10.07;;;3.97;;
39190;SDS011;24916;51.676;6.614;2022-08-21T00:58:44;7.88;;;4.22;;
39190;SDS011;24916;51.676;6.614;2022-08-21T01:01:10;9.48;;;4.13;;
39190;SDS011;24916;51.676;6.614;2022-08-21T01:03:36;7.25;;;3.67;;
39190;SDS011;24916;51.676;6.614;2022-08-21T01:06:02;7.10;;;3.75;;
39190;SDS011;24916;51.676;6.614;2022-08-21T01:08:29;7.80;;;3.80;;
39190;SDS011;24916;51.676;6.614;2022-08-21T01:10:55;10.02;;;4.30;;
39190;SDS011;24916;51.676;6.614;2022-08-21T01:13:21;9.07;;;3.78;;
39190;SDS011;24916;51.676;6.614;2022-08-21T01:15:50;7.70;;;4.03;;
39190;SDS011;24916;51.676;6.614;2022-08-21T01:18:17;6.38;;;3.80;;
39190;SDS011;24916;51.676;6.614;2022-08-21T01:21:05;6.38;;;3.67;;
39190;SDS011;24916;51.676;6.614;2022-08-21T01:23:29;7.82;;;4.13;;
39190;SDS011;24916;51.676;6.614;2022-08-21T01:25:54;7.72;;;3.85;;
39190;SDS011;24916;51.676;6.614;2022-08-21T01:28:20;10.55;;;3.85;;
39190;SDS011;24916;51.676;6.614;2022-08-21T01:30:46;11.18;;;3.67;;
39190;SDS011;24916;51.676;6.614;2022-08-21T01:33:11;8.27;;;3.72;;
39190;SDS011;24916;51.676;6.614;2022-08-21T01:35:37;9.95;;;4.32;;
39190;SDS011;24916;51.676;6.614;2022-08-21T01:38:03;7.05;;;4.25;;
39190;SDS011;24916;51.676;6.614;2022-08-21T01:40:29;10.10;;;4.50;;
39190;SDS011;24916;51.676;6.614;2022-08-21T01:42:54;10.13;;;4.45;;
39190;SDS011;24916;51.676;6.614;2022-08-21T01:45:20;5.93;;;3.72;;
39190;SDS011;24916;51.676;6.614;2022-08-21T01:47:45;9.38;;;4.03;;
39190;SDS011;24916;51.676;6.614;2022-08-21T01:50:12;10.05;;;3.92;;
39190;SDS011;24916;51.676;6.614;2022-08-21T01:52:38;8.00;;;4.05;;
39190;SDS011;24916;51.676;6.614;2022-08-21T01:55:04;10.38;;;4.70;;
39190;SDS011;24916;51.676;6.614;2022-08-21T01:57:30;9.20;;;4.50;;
39190;SDS011;24916;51.676;6.614;2022-08-21T01:59:56;8.95;;;4.78;;
39190;SDS011;24916;51.676;6.614;2022-08-21T02:02:21;11.80;;;5.28;;
39190;SDS011;24916;51.676;6.614;2022-08-21T02:04:46;11.65;;;5.97;;
39190;SDS011;24916;51.676;6.614;2022-08-21T02:07:11;10.95;;;6.90;;
39190;SDS011;24916;51.676;6.614;2022-08-21T02:09:37;16.05;;;7.65;;
39190;SDS011;24916;51.676;6.614;2022-08-21T02:12:02;12.88;;;7.68;;
39190;SDS011;24916;51.676;6.614;2022-08-21T02:14:28;15.25;;;7.60;;
39190;SDS011;24916;51.676;6.614;2022-08-21T02:16:53;13.88;;;7.95;;
39190;SDS011;24916;51.676;6.614;2022-08-21T02:19:18;19.27;;;10.00;;
39190;SDS011;24916;51.676;6.614;2022-08-21T02:21:44;16.70;;;9.98;;
39190;SDS011;24916;51.676;6.614;2022-08-21T02:24:09;17.35;;;10.00;;
39190;SDS011;24916;51.676;6.614;2022-08-21T02:26:35;18.05;;;10.13;;
39190;SDS011;24916;51.676;6.614;2022-08-21T02:29:00;16.42;;;9.32;;
39190;SDS011;24916;51.676;6.614;2022-08-21T02:31:26;13.23;;;8.15;;
39190;SDS011;24916;51.676;6.614;2022-08-21T02:33:51;12.02;;;6.97;;
39190;SDS011;24916;51.676;6.614;2022-08-21T02:36:17;13.23;;;6.95;;
39190;SDS011;24916;51.676;6.614;2022-08-21T02:38:42;10.57;;;5.82;;
39190;SDS011;24916;51.676;6.614;2022-08-21T02:41:15;10.45;;;5.78;;
39190;SDS011;24916;51.676;6.614;2022-08-21T02:43:40;12.93;;;5.75;;
39190;SDS011;24916;51.676;6.614;2022-08-21T02:46:06;9.65;;;5.10;;
39190;SDS011;24916;51.676;6.614;2022-08-21T02:48:32;9.05;;;5.07;;
39190;SDS011;24916;51.676;6.614;2022-08-21T02:51:06;11.50;;;5.15;;
39190;SDS011;24916;51.676;6.614;2022-08-21T02:53:31;8.52;;;5.13;;
39190;SDS011;24916;51.676;6.614;2022-08-21T02:55:58;7.45;;;5.03;;
39190;SDS011;24916;51.676;6.614;2022-08-21T02:58:25;10.57;;;5.03;;
39190;SDS011;24916;51.676;6.614;2022-08-21T03:00:51;12.07;;;5.75;;
39190;SDS011;24916;51.676;6.614;2022-08-21T03:03:16;11.90;;;5.78;;
39190;SDS011;24916;51.676;6.614;2022-08-21T03:05:42;8.93;;;5.50;;
39190;SDS011;24916;51.676;6.614;2022-08-21T03:08:09;10.45;;;6.85;;
39190;SDS011;24916;51.676;6.614;2022-08-21T03:10:35;9.55;;;6.50;;
39190;SDS011;24916;51.676;6.614;2022-08-21T03:13:00;12.25;;;6.95;;
39190;SDS011;24916;51.676;6.614;2022-08-21T03:15:28;15.82;;;7.97;;
39190;SDS011;24916;51.676;6.614;2022-08-21T03:17:54;12.38;;;6.97;;
39190;SDS011;24916;51.676;6.614;2022-08-21T03:20:20;12.30;;;6.32;;
39190;SDS011;24916;51.676;6.614;2022-08-21T03:22:47;12.68;;;6.13;;
39190;SDS011;24916;51.676;6.614;2022-08-21T03:25:13;15.63;;;7.00;;
39190;SDS011;24916;51.676;6.614;2022-08-21T03:27:38;10.40;;;6.25;;
39190;SDS011;24916;51.676;6.614;2022-08-21T03:30:04;11.40;;;5.70;;
39190;SDS011;24916;51.676;6.614;2022-08-21T03:32:30;8.93;;;5.57;;
39190;SDS011;24916;51.676;6.614;2022-08-21T03:34:56;9.98;;;5.57;;
39190;SDS011;24916;51.676;6.614;2022-08-21T03:37:22;12.90;;;5.55;;
39190;SDS011;24916;51.676;6.614;2022-08-21T03:39:47;10.77;;;5.45;;
39190;SDS011;24916;51.676;6.614;2022-08-21T03:42:12;11.20;;;5.60;;
39190;SDS011;24916;51.676;6.614;2022-08-21T03:44:38;10.15;;;6.00;;
39190;SDS011;24916;51.676;6.614;2022-08-21T03:47:04;11.10;;;5.30;;
39190;SDS011;24916;51.676;6.614;2022-08-21T03:49:30;9.20;;;5.38;;
39190;SDS011;24916;51.676;6.614;2022-08-21T03:51:55;12.15;;;5.72;;
39190;SDS011;24916;51.676;6.614;2022-08-21T03:54:20;8.57;;;5.25;;
39190;SDS011;24916;51.676;6.614;2022-08-21T03:56:46;9.80;;;6.00;;
39190;SDS011;24916;51.676;6.614;2022-08-21T03:59:11;10.85;;;6.30;;
39190;SDS011;24916;51.676;6.614;2022-08-21T04:01:36;11.30;;;5.95;;
39190;SDS011;24916;51.676;6.614;2022-08-21T04:04:03;14.63;;;6.45;;
39190;SDS011;24916;51.676;6.614;2022-08-21T04:06:28;9.38;;;5.85;;
39190;SDS011;24916;51.676;6.614;2022-08-21T04:08:54;12.25;;;5.93;;
39190;SDS011;24916;51.676;6.614;2022-08-21T04:11:20;8.90;;;6.18;;
39190;SDS011;24916;51.676;6.614;2022-08-21T04:13:45;13.20;;;6.22;;
39190;SDS011;24916;51.676;6.614;2022-08-21T04:16:11;12.18;;;6.38;;
39190;SDS011;24916;51.676;6.614;2022-08-21T04:18:37;9.52;;;6.30;;
39190;SDS011;24916;51.676;6.614;2022-08-21T04:21:02;11.70;;;5.88;;
39190;SDS011;24916;51.676;6.614;2022-08-21T04:23:28;12.55;;;6.43;;
39190;SDS011;24916;51.676;6.614;2022-08-21T04:25:53;11.35;;;6.05;;
39190;SDS011;24916;51.676;6.614;2022-08-21T04:28:19;9.57;;;7.10;;
39190;SDS011;24916;51.676;6.614;2022-08-21T04:30:45;12.38;;;6.20;;
39190;SDS011;24916;51.676;6.614;2022-08-21T04:33:10;11.40;;;6.30;;
39190;SDS011;24916;51.676;6.614;2022-08-21T04:35:36;10.68;;;6.07;;
39190;SDS011;24916;51.676;6.614;2022-08-21T04:38:01;11.45;;;6.60;;
39190;SDS011;24916;51.676;6.614;2022-08-21T04:40:27;10.40;;;6.30;;
39190;SDS011;24916;51.676;6.614;2022-08-21T04:42:56;11.63;;;5.85;;
39190;SDS011;24916;51.676;6.614;2022-08-21T04:45:26;11.05;;;6.28;;
39190;SDS011;24916;51.676;6.614;2022-08-21T04:47:53;10.45;;;6.07;;
39190;SDS011;24916;51.676;6.614;2022-08-21T04:50:19;7.80;;;5.13;;
39190;SDS011;24916;51.676;6.614;2022-08-21T04:52:46;10.75;;;6.03;;
39190;SDS011;24916;51.676;6.614;2022-08-21T04:55:12;10.82;;;6.00;;
39190;SDS011;24916;51.676;6.614;2022-08-21T04:57:37;9.98;;;5.72;;
39190;SDS011;24916;51.676;6.614;2022-08-21T05:00:04;8.60;;;5.35;;
39190;SDS011;24916;51.676;6.614;2022-08-21T05:02:30;11.52;;;5.40;;
39190;SDS011;24916;51.676;6.614;2022-08-21T05:04:58;9.00;;;4.97;;
39190;SDS011;24916;51.676;6.614;2022-08-21T05:07:25;10.55;;;5.15;;
39190;SDS011;24916;51.676;6.614;2022-08-21T05:09:51;9.57;;;5.32;;
39190;SDS011;24916;51.676;6.614;2022-08-21T05:12:17;11.88;;;5.10;;
39190;SDS011;24916;51.676;6.614;2022-08-21T05:14:42;10.77;;;4.97;;
39190;SDS011;24916;51.676;6.614;2022-08-21T05:17:08;10.02;;;4.88;;
39190;SDS011;24916;51.676;6.614;2022-08-21T05:19:34;10.85;;;5.57;;
39190;SDS011;24916;51.676;6.614;2022-08-21T05:21:59;10.63;;;5.65;;
39190;SDS011;24916;51.676;6.614;2022-08-21T05:24:25;8.50;;;5.60;;
39190;SDS011;24916;51.676;6.614;2022-08-21T05:26:51;10.32;;;5.20;;
39190;SDS011;24916;51.676;6.614;2022-08-21T05:29:16;9.23;;;4.90;;
39190;SDS011;24916;51.676;6.614;2022-08-21T05:31:42;13.63;;;6.22;;
39190;SDS011;24916;51.676;6.614;2022-08-21T05:34:07;8.45;;;5.40;;
39190;SDS011;24916;51.676;6.614;2022-08-21T05:36:33;11.77;;;5.78;;
39190;SDS011;24916;51.676;6.614;2022-08-21T05:38:58;9.20;;;5.82;;
39190;SDS011;24916;51.676;6.614;2022-08-21T05:41:23;9.45;;;6.03;;
39190;SDS011;24916;51.676;6.614;2022-08-21T05:43:49;11.38;;;6.50;;
39190;SDS011;24916;51.676;6.614;2022-08-21T05:46:14;13.75;;;6.68;;
39190;SDS011;24916;51.676;6.614;2022-08-21T05:48:40;9.90;;;6.22;;
39190;SDS011;24916;51.676;6.614;2022-08-21T05:51:09;12.18;;;6.20;;
39190;SDS011;24916;51.676;6.614;2022-08-21T05:53:35;12.57;;;5.85;;
39190;SDS011;24916;51.676;6.614;2022-08-21T05:56:01;12.05;;;6.20;;
39190;SDS011;24916;51.676;6.614;2022-08-21T05:58:28;12.43;;;6.43;;
39190;SDS011;24916;51.676;6.614;2022-08-21T06:00:54;9.15;;;6.32;;
39190;SDS011;24916;51.676;6.614;2022-08-21T06:03:22;9.63;;;5.75;;
39190;SDS011;24916;51.676;6.614;2022-08-21T06:05:48;12.85;;;5.50;;
39190;SDS011;24916;51.676;6.614;2022-08-21T06:08:15;8.97;;;5.30;;
39190;SDS011;24916;51.676;6.614;2022-08-21T06:10:43;8.80;;;5.20;;
39190;SDS011;24916;51.676;6.614;2022-08-21T06:13:09;11.63;;;5.55;;
39190;SDS011;24916;51.676;6.614;2022-08-21T06:15:35;9.13;;;5.40;;
39190;SDS011;24916;51.676;6.614;2022-08-21T06:18:00;8.88;;;4.90;;
39190;SDS011;24916;51.676;6.614;2022-08-21T06:20:26;9.80;;;4.75;;
39190;SDS011;24916;51.676;6.614;2022-08-21T06:22:51;6.90;;;4.65;;
39190;SDS011;24916;51.676;6.614;2022-08-21T06:25:17;8.67;;;4.60;;
39190;SDS011;24916;51.676;6.614;2022-08-21T06:27:42;9.73;;;4.78;;
39190;SDS011;24916;51.676;6.614;2022-08-21T06:30:08;12.13;;;5.10;;
39190;SDS011;24916;51.676;6.614;2022-08-21T06:32:33;12.18;;;4.57;;
39190;SDS011;24916;51.676;6.614;2022-08-21T06:34:59;14.10;;;4.78;;
39190;SDS011;24916;51.676;6.614;2022-08-21T06:37:24;8.25;;;4.55;;
39190;SDS011;24916;51.676;6.614;2022-08-21T06:39:49;7.03;;;4.57;;
39190;SDS011;24916;51.676;6.614;2022-08-21T06:42:16;12.80;;;5.47;;
39190;SDS011;24916;51.676;6.614;2022-08-21T06:44:41;8.57;;;5.55;;
39190;SDS011;24916;51.676;6.614;2022-08-21T06:47:07;7.38;;;4.28;;
39190;SDS011;24916;51.676;6.614;2022-08-21T06:49:33;18.13;;;10.30;;
39190;SDS011;24916;51.676;6.614;2022-08-21T06:51:58;17.70;;;10.85;;
39190;SDS011;24916;51.676;6.614;2022-08-21T06:54:24;14.52;;;7.72;;
39190;SDS011;24916;51.676;6.614;2022-08-21T06:56:49;7.65;;;4.78;;
39190;SDS011;24916;51.676;6.614;2022-08-21T06:59:14;8.75;;;4.35;;
39190;SDS011;24916;51.676;6.614;2022-08-21T07:01:40;10.20;;;4.22;;
39190;SDS011;24916;51.676;6.614;2022-08-21T07:04:06;7.20;;;4.13;;
39190;SDS011;24916;51.676;6.614;2022-08-21T07:06:31;9.48;;;4.28;;
39190;SDS011;24916;51.676;6.614;2022-08-21T07:08:56;12.55;;;4.38;;
39190;SDS011;24916;51.676;6.614;2022-08-21T07:11:23;8.48;;;4.30;;
39190;SDS011;24916;51.676;6.614;2022-08-21T07:13:49;9.48;;;4.20;;
39190;SDS011;24916;51.676;6.614;2022-08-21T07:16:16;6.88;;;3.80;;
39190;SDS011;24916;51.676;6.614;2022-08-21T07:18:41;9.50;;;3.80;;
39190;SDS011;24916;51.676;6.614;2022-08-21T07:21:06;9.27;;;3.90;;
39190;SDS011;24916;51.676;6.614;2022-08-21T07:23:33;8.25;;;4.30;;
39190;SDS011;24916;51.676;6.614;2022-08-21T07:26:00;9.70;;;3.70;;
39190;SDS011;24916;51.676;6.614;2022-08-21T07:28:26;8.40;;;3.90;;
39190;SDS011;24916;51.676;6.614;2022-08-21T07:30:52;6.00;;;3.40;;
39190;SDS011;24916;51.676;6.614;2022-08-21T07:33:18;10.52;;;3.90;;
39190;SDS011;24916;51.676;6.614;2022-08-21T07:35:43;7.05;;;3.50;;
39190;SDS011;24916;51.676;6.614;2022-08-21T07:38:09;8.05;;;3.17;;
39190;SDS011;24916;51.676;6.614;2022-08-21T07:40:34;7.65;;;3.20;;
39190;SDS011;24916;51.676;6.614;2022-08-21T07:42:59;9.65;;;3.55;;
39190;SDS011;24916;51.676;6.614;2022-08-21T07:45:25;8.75;;;3.78;;
39190;SDS011;24916;51.676;6.614;2022-08-21T07:47:51;8.82;;;4.28;;
39190;SDS011;24916;51.676;6.614;2022-08-21T07:50:17;8.05;;;3.53;;
39190;SDS011;24916;51.676;6.614;2022-08-21T07:52:42;7.53;;;2.85;;
39190;SDS011;24916;51.676;6.614;2022-08-21T07:55:09;6.30;;;3.30;;
39190;SDS011;24916;51.676;6.614;2022-08-21T07:57:35;7.38;;;2.90;;
39190;SDS011;24916;51.676;6.614;2022-08-21T08:00:01;6.30;;;3.78;;
39190;SDS011;24916;51.676;6.614;2022-08-21T08:02:28;8.90;;;2.88;;
39190;SDS011;24916;51.676;6.614;2022-08-21T08:04:53;7.93;;;3.03;;
39190;SDS011;24916;51.676;6.614;2022-08-21T08:07:19;6.40;;;2.40;;
39190;SDS011;24916;51.676;6.614;2022-08-21T08:09:45;7.85;;;2.15;;
39190;SDS011;24916;51.676;6.614;2022-08-21T08:12:13;8.30;;;2.30;;
39190;SDS011;24916;51.676;6.614;2022-08-21T08:14:38;8.37;;;2.03;;
39190;SDS011;24916;51.676;6.614;2022-08-21T08:17:03;6.10;;;1.33;;
39190;SDS011;24916;51.676;6.614;2022-08-21T08:19:31;7.20;;;1.70;;
39190;SDS011;24916;51.676;6.614;2022-08-21T08:21:57;6.20;;;1.40;;
39190;SDS011;24916;51.676;6.614;2022-08-21T08:24:22;6.28;;;1.48;;
39190;SDS011;24916;51.676;6.614;2022-08-21T08:26:47;5.70;;;1.50;;
39190;SDS011;24916;51.676;6.614;2022-08-21T08:29:13;6.65;;;1.75;;
39190;SDS011;24916;51.676;6.614;2022-08-21T08:31:38;3.80;;;1.20;;
39190;SDS011;24916;51.676;6.614;2022-08-21T08:34:04;4.03;;;1.13;;
39190;SDS011;24916;51.676;6.614;2022-08-21T08:36:35;7.47;;;1.55;;
39190;SDS011;24916;51.676;6.614;2022-08-21T08:39:01;4.93;;;1.47;;
39190;SDS011;24916;51.676;6.614;2022-08-21T08:41:27;6.68;;;1.20;;
39190;SDS011;24916;51.676;6.614;2022-08-21T08:43:58;5.10;;;1.27;;
39190;SDS011;24916;51.676;6.614;2022-08-21T08:48:55;4.82;;;1.92;;
39190;SDS011;24916;51.676;6.614;2022-08-21T08:54:07;7.85;;;1.85;;
39190;SDS011;24916;51.676;6.614;2022-08-21T08:56:45;7.82;;;3.20;;
39190;SDS011;24916;51.676;6.614;2022-08-21T08:59:15;4.88;;;1.40;;
39190;SDS011;24916;51.676;6.614;2022-08-21T09:01:40;8.25;;;1.60;;
39190;SDS011;24916;51.676;6.614;2022-08-21T09:04:09;5.38;;;1.85;;
39190;SDS011;24916;51.676;6.614;2022-08-21T09:09:25;6.15;;;2.40;;
39190;SDS011;24916;51.676;6.614;2022-08-21T09:14:31;6.53;;;1.83;;
39190;SDS011;24916;51.676;6.614;2022-08-21T09:17:04;9.57;;;1.85;;
39190;SDS011;24916;51.676;6.614;2022-08-21T09:25:04;5.72;;;1.50;;
39190;SDS011;24916;51.676;6.614;2022-08-21T09:27:33;6.20;;;1.52;;
39190;SDS011;24916;51.676;6.614;2022-08-21T09:29:58;6.15;;;1.38;;
39190;SDS011;24916;51.676;6.614;2022-08-21T09:32:25;4.32;;;1.55;;
39190;SDS011;24916;51.676;6.614;2022-08-21T09:37:58;6.03;;;2.10;;
39190;SDS011;24916;51.676;6.614;2022-08-21T09:43:04;7.55;;;1.73;;
39190;SDS011;24916;51.676;6.614;2022-08-21T09:45:31;5.60;;;1.10;;
39190;SDS011;24916;51.676;6.614;2022-08-21T09:48:07;6.68;;;1.40;;
39190;SDS011;24916;51.676;6.614;2022-08-21T09:50:36;7.30;;;2.42;;
39190;SDS011;24916;51.676;6.614;2022-08-21T09:53:01;8.68;;;1.73;;
39190;SDS011;24916;51.676;6.614;2022-08-21T09:55:34;6.68;;;1.80;;
39190;SDS011;24916;51.676;6.614;2022-08-21T09:58:21;10.77;;;2.08;;
39190;SDS011;24916;51.676;6.614;2022-08-21T10:00:59;6.53;;;2.20;;
39190;SDS011;24916;51.676;6.614;2022-08-21T10:03:24;7.25;;;2.35;;
39190;SDS011;24916;51.676;6.614;2022-08-21T10:05:51;4.43;;;1.77;;
39190;SDS011;24916;51.676;6.614;2022-08-21T10:08:17;9.15;;;1.90;;
39190;SDS011;24916;51.676;6.614;2022-08-21T10:10:43;6.32;;;1.40;;
39190;SDS011;24916;51.676;6.614;2022-08-21T10:13:18;5.03;;;1.10;;
39190;SDS011;24916;51.676;6.614;2022-08-21T10:20:51;4.97;;;1.40;;
39190;SDS011;24916;51.676;6.614;2022-08-21T10:26:02;7.03;;;1.50;;
39190;SDS011;24916;51.676;6.614;2022-08-21T10:28:34;8.00;;;1.92;;
39190;SDS011;24916;51.676;6.614;2022-08-21T10:31:20;6.80;;;1.15;;
39190;SDS011;24916;51.676;6.614;2022-08-21T10:33:58;3.83;;;1.10;;
39190;SDS011;24916;51.676;6.614;2022-08-21T10:36:31;5.95;;;1.30;;
39190;SDS011;24916;51.676;6.614;2022-08-21T10:41:37;4.80;;;1.48;;
39190;SDS011;24916;51.676;6.614;2022-08-21T10:51:42;5.10;;;1.40;;
39190;SDS011;24916;51.676;6.614;2022-08-21T10:56:58;9.25;;;1.70;;
39190;SDS011;24916;51.676;6.614;2022-08-21T10:59:47;4.30;;;0.95;;
39190;SDS011;24916;51.676;6.614;2022-08-21T11:02:30;5.38;;;1.08;;
39190;SDS011;24916;51.676;6.614;2022-08-21T11:04:59;7.97;;;1.45;;
39190;SDS011;24916;51.676;6.614;2022-08-21T11:07:33;8.60;;;1.88;;
39190;SDS011;24916;51.676;6.614;2022-08-21T11:10:02;6.60;;;1.38;;
39190;SDS011;24916;51.676;6.614;2022-08-21T11:12:37;4.68;;;1.38;;
39190;SDS011;24916;51.676;6.614;2022-08-21T11:15:11;6.00;;;1.10;;
39190;SDS011;24916;51.676;6.614;2022-08-21T11:23:04;6.07;;;1.27;;
39190;SDS011;24916;51.676;6.614;2022-08-21T11:25:36;5.35;;;1.30;;
39190;SDS011;24916;51.676;6.614;2022-08-21T11:28:06;8.05;;;2.97;;
39190;SDS011;24916;51.676;6.614;2022-08-21T11:30:44;5.13;;;1.20;;
39190;SDS011;24916;51.676;6.614;2022-08-21T11:35:48;5.65;;;1.25;;
39190;SDS011;24916;51.676;6.614;2022-08-21T11:38:30;8.57;;;1.00;;
39190;SDS011;24916;51.676;6.614;2022-08-21T11:45:54;5.03;;;1.10;;
39190;SDS011;24916;51.676;6.614;2022-08-21T11:51:04;8.70;;;3.05;;
39190;SDS011;24916;51.676;6.614;2022-08-21T11:55:58;6.43;;;1.17;;
39190;SDS011;24916;51.676;6.614;2022-08-21T11:58:31;3.92;;;1.10;;
39190;SDS011;24916;51.676;6.614;2022-08-21T12:01:05;5.55;;;1.15;;
39190;SDS011;24916;51.676;6.614;2022-08-21T12:03:42;3.92;;;0.80;;
39190;SDS011;24916;51.676;6.614;2022-08-21T12:06:13;3.42;;;0.90;;
39190;SDS011;24916;51.676;6.614;2022-08-21T12:08:43;5.05;;;1.27;;
39190;SDS011;24916;51.676;6.614;2022-08-21T12:11:10;3.03;;;0.73;;
39190;SDS011;24916;51.676;6.614;2022-08-21T12:16:28;5.95;;;1.20;;
39190;SDS011;24916;51.676;6.614;2022-08-21T12:24:40;4.00;;;0.97;;
39190;SDS011;24916;51.676;6.614;2022-08-21T12:27:19;4.63;;;1.10;;
39190;SDS011;24916;51.676;6.614;2022-08-21T12:29:46;3.00;;;0.80;;
39190;SDS011;24916;51.676;6.614;2022-08-21T12:34:38;6.07;;;1.30;;
39190;SDS011;24916;51.676;6.614;2022-08-21T12:39:37;10.27;;;3.75;;
39190;SDS011;24916;51.676;6.614;2022-08-21T12:42:11;4.47;;;2.08;;
39190;SDS011;24916;51.676;6.614;2022-08-21T12:44:45;7.20;;;3.17;;
39190;SDS011;24916;51.676;6.614;2022-08-21T12:47:21;5.75;;;2.67;;
39190;SDS011;24916;51.676;6.614;2022-08-21T12:52:27;3.67;;;1.13;;
39190;SDS011;24916;51.676;6.614;2022-08-21T12:54:52;2.97;;;0.82;;
39190;SDS011;24916;51.676;6.614;2022-08-21T12:57:19;4.00;;;0.90;;
39190;SDS011;24916;51.676;6.614;2022-08-21T12:59:45;3.63;;;1.13;;
39190;SDS011;24916;51.676;6.614;2022-08-21T13:02:16;3.78;;;1.02;;
39190;SDS011;24916;51.676;6.614;2022-08-21T13:04:42;3.20;;;0.90;;
39190;SDS011;24916;51.676;6.614;2022-08-21T13:07:08;3.28;;;0.80;;
39190;SDS011;24916;51.676;6.614;2022-08-21T13:09:36;3.60;;;0.90;;
39190;SDS011;24916;51.676;6.614;2022-08-21T13:12:07;6.57;;;1.08;;
39190;SDS011;24916;51.676;6.614;2022-08-21T13:14:34;3.92;;;1.20;;
39190;SDS011;24916;51.676;6.614;2022-08-21T13:17:02;5.82;;;2.78;;
39190;SDS011;24916;51.676;6.614;2022-08-21T13:19:28;4.03;;;1.10;;
39190;SDS011;24916;51.676;6.614;2022-08-21T13:21:55;5.35;;;0.70;;
39190;SDS011;24916;51.676;6.614;2022-08-21T13:26:46;3.65;;;0.85;;
39190;SDS011;24916;51.676;6.614;2022-08-21T13:29:12;2.95;;;0.70;;
39190;SDS011;24916;51.676;6.614;2022-08-21T13:31:40;2.75;;;0.90;;
39190;SDS011;24916;51.676;6.614;2022-08-21T13:34:07;6.68;;;1.00;;
39190;SDS011;24916;51.676;6.614;2022-08-21T13:36:39;4.93;;;0.98;;
39190;SDS011;24916;51.676;6.614;2022-08-21T13:39:07;4.82;;;0.93;;
39190;SDS011;24916;51.676;6.614;2022-08-21T13:41:34;6.28;;;1.40;;
39190;SDS011;24916;51.676;6.614;2022-08-21T13:44:04;4.75;;;1.65;;
39190;SDS011;24916;51.676;6.614;2022-08-21T13:46:31;6.50;;;1.75;;
39190;SDS011;24916;51.676;6.614;2022-08-21T13:48:58;3.97;;;0.93;;
39190;SDS011;24916;51.676;6.614;2022-08-21T13:51:24;3.88;;;0.85;;
39190;SDS011;24916;51.676;6.614;2022-08-21T13:53:51;3.55;;;1.02;;
39190;SDS011;24916;51.676;6.614;2022-08-21T13:58:55;4.75;;;1.52;;
39190;SDS011;24916;51.676;6.614;2022-08-21T14:03:53;5.95;;;1.17;;
39190;SDS011;24916;51.676;6.614;2022-08-21T14:06:23;5.75;;;1.15;;
39190;SDS011;24916;51.676;6.614;2022-08-21T14:08:50;4.88;;;1.10;;
39190;SDS011;24916;51.676;6.614;2022-08-21T14:11:16;3.58;;;1.27;;
39190;SDS011;24916;51.676;6.614;2022-08-21T14:16:12;4.45;;;0.85;;
39190;SDS011;24916;51.676;6.614;2022-08-21T14:18:53;4.70;;;1.08;;
39190;SDS011;24916;51.676;6.614;2022-08-21T14:21:34;4.63;;;1.20;;
39190;SDS011;24916;51.676;6.614;2022-08-21T14:24:04;9.52;;;1.75;;
39190;SDS011;24916;51.676;6.614;2022-08-21T14:26:30;3.42;;;0.90;;
39190;SDS011;24916;51.676;6.614;2022-08-21T14:28:58;3.20;;;1.23;;
39190;SDS011;24916;51.676;6.614;2022-08-21T14:31:27;5.25;;;1.55;;
39190;SDS011;24916;51.676;6.614;2022-08-21T14:33:54;6.35;;;2.00;;
39190;SDS011;24916;51.676;6.614;2022-08-21T14:36:19;3.72;;;1.48;;
39190;SDS011;24916;51.676;6.614;2022-08-21T14:38:45;2.60;;;0.80;;
39190;SDS011;24916;51.676;6.614;2022-08-21T14:41:21;5.53;;;0.85;;
39190;SDS011;24916;51.676;6.614;2022-08-21T14:43:47;4.32;;;1.00;;
39190;SDS011;24916;51.676;6.614;2022-08-21T14:46:13;4.57;;;0.95;;
39190;SDS011;24916;51.676;6.614;2022-08-21T14:48:39;5.50;;;0.90;;
39190;SDS011;24916;51.676;6.614;2022-08-21T14:51:05;2.23;;;0.80;;
39190;SDS011;24916;51.676;6.614;2022-08-21T14:53:31;4.45;;;1.38;;
39190;SDS011;24916;51.676;6.614;2022-08-21T14:55:56;3.35;;;0.80;;
39190;SDS011;24916;51.676;6.614;2022-08-21T14:58:36;3.67;;;1.00;;
39190;SDS011;24916;51.676;6.614;2022-08-21T15:01:02;7.85;;;4.30;;
39190;SDS011;24916;51.676;6.614;2022-08-21T15:03:29;4.22;;;1.13;;
39190;SDS011;24916;51.676;6.614;2022-08-21T15:05:54;4.20;;;2.28;;
39190;SDS011;24916;51.676;6.614;2022-08-21T15:08:20;3.50;;;1.00;;
39190;SDS011;24916;51.676;6.614;2022-08-21T15:10:45;2.47;;;0.90;;
39190;SDS011;24916;51.676;6.614;2022-08-21T15:13:10;2.40;;;0.82;;
39190;SDS011;24916;51.676;6.614;2022-08-21T15:15:42;3.83;;;1.10;;
39190;SDS011;24916;51.676;6.614;2022-08-21T15:18:08;3.10;;;0.80;;
39190;SDS011;24916;51.676;6.614;2022-08-21T15:20:34;6.07;;;1.00;;
39190;SDS011;24916;51.676;6.614;2022-08-21T15:23:00;2.95;;;0.70;;
39190;SDS011;24916;51.676;6.614;2022-08-21T15:25:25;3.50;;;0.85;;
39190;SDS011;24916;51.676;6.614;2022-08-21T15:27:50;3.50;;;0.75;;
39190;SDS011;24916;51.676;6.614;2022-08-21T15:30:16;3.47;;;0.93;;
39190;SDS011;24916;51.676;6.614;2022-08-21T15:32:41;2.28;;;0.63;;
39190;SDS011;24916;51.676;6.614;2022-08-21T15:35:07;3.05;;;1.75;;
39190;SDS011;24916;51.676;6.614;2022-08-21T15:37:32;4.57;;;1.50;;
39190;SDS011;24916;51.676;6.614;2022-08-21T15:39:58;3.53;;;1.40;;
39190;SDS011;24916;51.676;6.614;2022-08-21T15:42:23;4.05;;;1.23;;
39190;SDS011;24916;51.676;6.614;2022-08-21T15:44:49;2.45;;;0.75;;
39190;SDS011;24916;51.676;6.614;2022-08-21T15:47:16;4.10;;;0.82;;
39190;SDS011;24916;51.676;6.614;2022-08-21T15:49:42;7.28;;;1.58;;
39190;SDS011;24916;51.676;6.614;2022-08-21T15:52:10;5.43;;;1.58;;
39190;SDS011;24916;51.676;6.614;2022-08-21T15:54:35;2.80;;;1.23;;
39190;SDS011;24916;51.676;6.614;2022-08-21T15:57:00;3.75;;;1.25;;
39190;SDS011;24916;51.676;6.614;2022-08-21T15:59:37;4.05;;;0.88;;
39190;SDS011;24916;51.676;6.614;2022-08-21T16:02:04;2.88;;;0.70;;
39190;SDS011;24916;51.676;6.614;2022-08-21T16:04:30;2.72;;;0.80;;
39190;SDS011;24916;51.676;6.614;2022-08-21T16:06:55;2.40;;;0.98;;
39190;SDS011;24916;51.676;6.614;2022-08-21T16:09:21;3.60;;;1.10;;